createdAt,value
2017-09-27T00:02:19.129Z,99854.84
2017-09-27T00:04:45.449Z,99853.66
2017-09-27T00:07:11.682Z,99860.97
2017-09-27T00:09:37.896Z,99856.28
2017-09-27T00:12:04.123Z,99856.28
2017-09-27T00:14:30.357Z,99859.86
2017-09-27T00:16:56.592Z,99852.73
2017-09-27T00:19:23.150Z,99862.69
2017-09-27T00:21:49.330Z,99858.92
2017-09-27T00:24:15.574Z,99856.89
2017-09-27T00:26:41.806Z,99866.27
2017-09-27T00:29:08.042Z,99865.38
2017-09-27T00:31:34.271Z,99872.00
2017-09-27T00:34:00.484Z,99869.14
2017-09-27T00:36:26.718Z,99875.55
2017-09-27T00:38:52.945Z,99871.57
2017-09-27T00:41:19.172Z,99867.52
2017-09-27T00:43:45.412Z,99871.89
2017-09-27T00:46:11.655Z,99872.83
2017-09-27T00:48:37.872Z,99881.96
2017-09-27T00:51:04.114Z,99876.80
2017-09-27T00:53:30.340Z,99881.56
2017-09-27T00:55:56.569Z,99874.36
2017-09-27T00:58:22.804Z,99886.37
2017-09-27T01:00:49.027Z,99883.11
2017-09-27T01:03:15.254Z,99885.54
2017-09-27T01:05:41.481Z,99885.75
2017-09-27T01:08:07.698Z,99887.04
2017-09-27T01:10:33.949Z,99891.16
2017-09-27T01:13:00.166Z,99889.23
2017-09-27T01:15:26.393Z,99888.80
2017-09-27T01:17:52.633Z,99891.27
2017-09-27T01:20:18.889Z,99892.84
2017-09-27T01:22:45.106Z,99891.52
2017-09-27T01:25:11.300Z,99894.28
2017-09-27T01:27:37.536Z,99901.87
2017-09-27T01:30:03.776Z,99900.01
2017-09-27T01:32:29.993Z,99903.09
2017-09-27T01:34:56.245Z,99908.39
2017-09-27T01:37:22.469Z,99915.73
2017-09-27T01:39:48.691Z,99907.06
2017-09-27T01:42:14.946Z,99904.73
2017-09-27T01:44:41.155Z,99912.03
2017-09-27T01:47:07.386Z,99912.70
2017-09-27T01:49:33.613Z,99907.31
2017-09-27T01:51:59.835Z,99907.99
2017-09-27T01:54:26.078Z,99907.73
2017-09-27T01:56:52.300Z,99917.55
2017-09-27T01:59:18.533Z,99923.02
2017-09-27T02:01:44.769Z,99918.89
2017-09-27T02:04:11.006Z,99919.77
2017-09-27T02:06:37.235Z,99922.36
2017-09-27T02:09:03.457Z,99924.76
2017-09-27T02:11:29.679Z,99923.01
2017-09-27T02:13:55.924Z,99924.91
2017-09-27T02:16:22.131Z,99929.20
2017-09-27T02:18:48.390Z,99933.22
2017-09-27T02:21:14.552Z,99934.54
2017-09-27T02:23:40.733Z,99932.17
2017-09-27T02:26:06.961Z,99937.90
2017-09-27T02:28:33.191Z,99937.69
2017-09-27T02:30:59.410Z,99932.45
2017-09-27T02:33:25.652Z,99933.63
2017-09-27T02:35:51.868Z,99932.16
2017-09-27T02:38:18.117Z,99937.66
2017-09-27T02:40:44.341Z,99933.21
2017-09-27T02:43:10.559Z,99933.89
2017-09-27T02:45:36.806Z,99937.23
2017-09-27T02:48:03.023Z,99939.55
2017-09-27T02:50:29.242Z,99933.45
2017-09-27T02:52:55.493Z,99938.38
2017-09-27T02:55:21.729Z,99947.63
2017-09-27T02:57:47.960Z,99944.43
2017-09-27T03:00:14.190Z,99945.11
2017-09-27T03:02:40.399Z,99943.34
2017-09-27T03:05:06.642Z,99946.56
2017-09-27T03:07:32.879Z,99948.63
2017-09-27T03:09:59.089Z,99949.83
2017-09-27T03:12:25.332Z,99948.66
2017-09-27T03:14:51.553Z,99955.94
2017-09-27T03:17:17.775Z,99957.20
2017-09-27T03:19:44.021Z,99956.88
2017-09-27T03:22:10.247Z,99957.54
2017-09-27T03:24:36.477Z,99948.67
2017-09-27T03:27:02.735Z,99953.81
2017-09-27T03:29:28.946Z,99950.64
2017-09-27T03:31:55.152Z,99953.71
2017-09-27T03:34:21.392Z,99960.56
2017-09-27T03:36:47.622Z,99959.86
2017-09-27T03:39:13.863Z,99963.84
2017-09-27T03:41:40.084Z,99959.56
2017-09-27T03:44:06.308Z,99955.16
2017-09-27T03:46:32.543Z,99954.33
2017-09-27T03:48:58.782Z,99957.83
2017-09-27T03:51:25.011Z,99964.73
2017-09-27T03:53:51.246Z,99963.04
2017-09-27T03:56:17.442Z,99962.42
2017-09-27T03:58:43.705Z,99962.21
2017-09-27T04:01:09.917Z,99966.66
2017-09-27T04:03:36.135Z,99958.45
2017-09-27T04:06:02.388Z,99974.03
2017-09-27T04:08:28.596Z,99967.06
2017-09-27T04:10:54.836Z,99971.85
2017-09-27T04:13:21.082Z,99984.01
2017-09-27T04:15:47.315Z,99981.78
2017-09-27T04:18:13.954Z,99988.82
2017-09-27T04:20:40.178Z,99995.95
2017-09-27T04:23:06.336Z,100007.77
2017-09-27T04:25:32.533Z,100009.33
2017-09-27T04:27:58.754Z,100021.08
2017-09-27T04:30:25.012Z,100025.60
2017-09-27T04:32:51.211Z,100008.21
2017-09-27T04:35:17.431Z,100006.02
2017-09-27T04:37:43.670Z,100011.37
2017-09-27T04:40:09.888Z,100018.45
2017-09-27T04:42:36.144Z,100023.85
2017-09-27T04:45:02.364Z,100022.64
2017-09-27T04:47:28.601Z,100027.73
2017-09-27T04:49:54.834Z,100032.19
2017-09-27T04:52:21.058Z,100040.09
2017-09-27T04:54:47.295Z,100042.25
2017-09-27T04:57:13.505Z,100037.97
2017-09-27T04:59:39.761Z,100040.87
2017-09-27T05:02:05.985Z,100050.92
2017-09-27T05:04:32.217Z,100047.55
2017-09-27T05:06:58.432Z,100056.06
2017-09-27T05:09:24.670Z,100052.00
2017-09-27T05:11:50.885Z,100058.00
2017-09-27T05:14:17.139Z,100055.62
2017-09-27T05:16:43.356Z,100051.50
2017-09-27T05:19:09.594Z,100064.02
2017-09-27T05:21:35.827Z,100068.48
2017-09-27T05:24:02.056Z,100067.31
2017-09-27T05:26:28.270Z,100063.28
2017-09-27T05:28:54.487Z,100064.17
2017-09-27T05:31:20.732Z,100073.98
2017-09-27T05:33:46.969Z,100068.81
2017-09-27T05:36:13.170Z,100074.78
2017-09-27T05:38:39.408Z,100069.77
2017-09-27T05:41:05.660Z,100072.38
2017-09-27T05:43:31.872Z,100075.28
2017-09-27T05:45:58.117Z,100071.36
2017-09-27T05:48:24.332Z,100085.50
2017-09-27T05:50:50.545Z,100085.77
2017-09-27T05:53:16.791Z,100095.42
2017-09-27T05:55:43.029Z,100094.45
2017-09-27T05:58:09.265Z,100087.44
2017-09-27T06:00:35.491Z,100099.13
2017-09-27T06:03:01.740Z,100107.20
2017-09-27T06:05:27.940Z,100107.08
2017-09-27T06:07:54.166Z,100106.36
2017-09-27T06:10:20.419Z,100109.61
2017-09-27T06:12:47.359Z,100112.02
2017-09-27T06:15:13.574Z,100115.46
2017-09-27T06:17:39.790Z,100118.88
2017-09-27T06:20:06.037Z,100115.23
2017-09-27T06:22:32.265Z,100119.63
2017-09-27T06:24:58.524Z,100120.83
2017-09-27T06:27:24.731Z,100125.02
2017-09-27T06:29:50.976Z,100122.81
2017-09-27T06:32:17.189Z,100121.27
2017-09-27T06:34:43.402Z,100127.70
2017-09-27T06:37:09.647Z,100130.00
2017-09-27T06:39:35.956Z,100128.92
2017-09-27T06:42:02.116Z,100132.02
2017-09-27T06:44:28.342Z,100139.03
2017-09-27T06:46:54.558Z,100140.61
2017-09-27T06:49:20.805Z,100147.69
2017-09-27T06:51:46.981Z,100140.48
2017-09-27T06:54:13.265Z,100149.38
2017-09-27T06:56:39.447Z,100152.20
2017-09-27T06:59:05.714Z,100158.88
2017-09-27T07:01:31.942Z,100160.66
2017-09-27T07:03:58.146Z,100160.45
2017-09-27T07:06:24.319Z,100161.63
2017-09-27T07:08:50.577Z,100164.55
2017-09-27T07:11:16.796Z,100171.08
2017-09-27T07:13:43.008Z,100175.12
2017-09-27T07:16:09.219Z,100172.02
2017-09-27T07:18:35.529Z,100171.38
2017-09-27T07:21:01.829Z,100165.26
2017-09-27T07:23:28.066Z,100171.11
2017-09-27T07:25:54.354Z,100176.69
2017-09-27T07:28:20.626Z,100181.29
2017-09-27T07:30:46.912Z,100187.48
2017-09-27T07:33:13.149Z,100186.72
2017-09-27T07:35:39.387Z,100187.70
2017-09-27T07:38:05.583Z,100189.30
2017-09-27T07:40:31.893Z,100191.88
2017-09-27T07:42:58.074Z,100193.71
2017-09-27T07:45:24.305Z,100195.14
2017-09-27T07:47:50.521Z,100195.67
2017-09-27T07:50:16.708Z,100198.48
2017-09-27T07:52:42.900Z,100198.64
2017-09-27T07:55:09.075Z,100200.58
2017-09-27T07:57:35.264Z,100195.51
2017-09-27T08:00:01.448Z,100201.87
2017-09-27T08:02:27.674Z,100201.66
2017-09-27T08:15:57.014Z,100213.19
2017-09-27T08:18:23.244Z,100216.23
2017-09-27T08:20:49.450Z,100227.06
2017-09-27T08:23:15.644Z,100220.22
2017-09-27T08:25:41.835Z,100231.59
2017-09-27T08:28:08.006Z,100221.73
2017-09-27T08:30:34.189Z,100228.77
2017-09-27T08:33:00.373Z,100230.37
2017-09-27T08:35:26.541Z,100228.88
2017-09-27T08:37:52.731Z,100232.50
2017-09-27T08:40:18.914Z,100232.25
2017-09-27T08:42:45.103Z,100241.23
2017-09-27T08:45:11.280Z,100246.95
2017-09-27T08:47:37.463Z,100253.67
2017-09-27T08:50:03.662Z,100252.92
2017-09-27T08:52:29.839Z,100249.63
2017-09-27T08:54:56.055Z,100255.66
2017-09-27T08:57:22.254Z,100265.66
2017-09-27T08:59:49.944Z,100255.73
2017-09-27T09:02:16.145Z,100266.63
2017-09-27T09:04:42.343Z,100262.95
2017-09-27T09:07:08.502Z,100260.80
2017-09-27T09:09:34.669Z,100270.44
2017-09-27T09:12:00.837Z,100264.45
2017-09-27T09:14:27.120Z,100266.44
2017-09-27T09:16:53.337Z,100261.87
2017-09-27T09:19:19.565Z,100265.67
2017-09-27T09:21:45.772Z,100271.16
2017-09-27T09:24:11.970Z,100270.13
2017-09-27T09:26:38.269Z,100272.63
2017-09-27T09:29:04.926Z,100270.87
2017-09-27T09:31:31.203Z,100273.09
2017-09-27T09:33:58.491Z,100276.20
2017-09-27T09:36:24.678Z,100272.31
2017-09-27T09:38:50.847Z,100267.31
2017-09-27T09:41:17.010Z,100270.73
2017-09-27T09:43:43.173Z,100270.48
2017-09-27T09:46:09.362Z,100274.87
2017-09-27T09:48:35.552Z,100274.47
2017-09-27T09:51:01.785Z,100272.55
2017-09-27T10:00:38.543Z,100277.55
2017-09-27T10:03:04.711Z,100273.67
2017-09-27T10:05:30.961Z,100273.52
2017-09-27T10:07:57.174Z,100272.03
2017-09-27T10:10:24.723Z,100268.63
2017-09-27T10:12:51.004Z,100274.44
2017-09-27T10:15:17.618Z,100281.37
2017-09-27T10:17:43.979Z,100284.10
2017-09-27T10:20:10.200Z,100294.66
2017-09-27T10:22:36.411Z,100292.61
2017-09-27T10:25:02.630Z,100293.05
2017-09-27T10:27:28.910Z,100292.53
2017-09-27T10:29:55.263Z,100292.80
2017-09-27T10:32:21.537Z,100288.50
2017-09-27T10:34:47.764Z,100290.49
2017-09-27T10:37:13.993Z,100284.05
2017-09-27T10:39:41.902Z,100293.51
2017-09-27T10:42:08.128Z,100292.59
2017-09-27T10:44:34.323Z,100298.42
2017-09-27T10:47:00.571Z,100295.29
2017-09-27T10:49:26.786Z,100298.98
2017-09-27T10:51:53.168Z,100298.66
2017-09-27T10:54:19.804Z,100299.31
2017-09-27T10:56:46.950Z,100302.88
2017-09-27T10:59:21.954Z,100302.87
2017-09-27T11:01:48.230Z,100300.44
2017-09-27T11:04:15.462Z,100297.05
2017-09-27T11:06:41.670Z,100302.78
2017-09-27T11:09:08.136Z,100302.57
2017-09-27T11:11:34.470Z,100299.58
2017-09-27T11:14:00.796Z,100301.70
2017-09-27T11:16:27.093Z,100300.70
2017-09-27T11:18:53.305Z,100301.07
2017-09-27T11:21:19.569Z,100307.59
2017-09-27T11:23:45.798Z,100306.52
2017-09-27T11:26:12.049Z,100306.17
2017-09-27T11:28:38.349Z,100313.89
2017-09-27T11:31:05.341Z,100311.95
2017-09-27T11:33:31.670Z,100314.41
2017-09-27T11:35:57.990Z,100312.82
2017-09-27T11:40:54.705Z,100316.11
2017-09-27T11:43:20.977Z,100316.70
2017-09-27T11:45:47.365Z,100315.27
2017-09-27T11:48:15.664Z,100323.50
2017-09-27T11:50:41.919Z,100326.00
2017-09-27T11:53:08.296Z,100325.59
2017-09-27T11:55:34.554Z,100321.83
2017-09-27T11:58:00.805Z,100318.11
2017-09-27T12:00:27.051Z,100315.95
2017-09-27T12:02:53.398Z,100316.47
2017-09-27T12:05:20.328Z,100327.05
2017-09-27T12:07:46.716Z,100318.68
2017-09-27T12:10:12.969Z,100322.42
2017-09-27T12:12:39.150Z,100317.80
2017-09-27T12:15:05.794Z,100319.83
2017-09-27T12:17:32.099Z,100318.78
2017-09-27T12:20:07.583Z,100321.99
2017-09-27T12:22:34.181Z,100320.77
2017-09-27T12:25:00.577Z,100321.90
2017-09-27T12:27:26.885Z,100317.00
2017-09-27T12:29:53.210Z,100313.99
2017-09-27T12:32:20.779Z,100312.45
2017-09-27T12:34:47.264Z,100312.02
2017-09-27T12:37:13.506Z,100323.52
2017-09-27T12:39:40.043Z,100312.19
2017-09-27T12:42:06.444Z,100316.22
2017-09-27T12:44:32.864Z,100315.98
2017-09-27T12:46:59.480Z,100319.23
2017-09-27T12:49:26.340Z,100322.50
2017-09-27T12:51:52.665Z,100320.83
2017-09-27T12:54:19.191Z,100325.73
2017-09-27T12:56:45.576Z,100322.69
2017-09-27T13:14:37.126Z,100324.20
2017-09-27T13:17:03.445Z,100319.95
2017-09-27T13:19:29.672Z,100317.02
2017-09-27T13:21:55.951Z,100313.29
2017-09-27T13:24:22.236Z,100319.27
2017-09-27T13:26:49.054Z,100326.26
2017-09-27T13:29:15.289Z,100321.86
2017-09-27T13:31:41.561Z,100326.26
2017-09-27T13:34:07.876Z,100321.05
2017-09-27T13:36:34.099Z,100325.11
2017-09-27T13:39:00.301Z,100324.95
2017-09-27T13:41:26.528Z,100324.45
2017-09-27T13:43:52.777Z,100328.79
2017-09-27T13:46:18.975Z,100326.34
2017-09-27T13:48:46.593Z,100335.37
2017-09-27T13:51:20.606Z,100326.95
2017-09-27T13:53:46.923Z,100328.41
2017-09-27T14:04:38.677Z,100324.07
2017-09-27T14:11:39.607Z,100329.68
2017-09-27T14:16:53.192Z,100331.09
2017-09-27T14:27:33.274Z,100346.96
2017-09-27T15:00:48.051Z,100358.72
2017-09-27T15:03:14.293Z,100364.22
2017-09-27T15:05:40.637Z,100367.09
2017-09-27T15:08:08.282Z,100362.03
2017-09-27T15:10:34.503Z,100357.52
2017-09-27T15:13:00.842Z,100366.86
2017-09-27T15:15:27.151Z,100362.58
2017-09-27T15:17:53.343Z,100369.73
2017-09-27T15:20:19.604Z,100370.25
2017-09-27T15:22:53.668Z,100375.13
2017-09-27T15:25:20.013Z,100372.55
2017-09-27T15:27:46.264Z,100370.93
2017-09-27T15:30:12.511Z,100378.73
2017-09-27T15:32:38.732Z,100379.42
2017-09-27T15:35:04.959Z,100383.89
2017-09-27T15:37:31.175Z,100384.97
2017-09-27T15:39:57.403Z,100387.88
2017-09-27T15:42:23.664Z,100386.42
2017-09-27T15:44:49.883Z,100390.65
2017-09-27T15:47:16.104Z,100391.81
2017-09-27T15:49:42.368Z,100392.35
2017-09-27T15:52:08.656Z,100395.00
2017-09-27T15:54:34.977Z,100393.33
2017-09-27T15:57:01.330Z,100389.84
2017-09-27T15:59:27.642Z,100394.70
2017-09-27T16:01:54.447Z,100389.78
2017-09-27T16:04:20.788Z,100392.95
2017-09-27T16:06:47.085Z,100392.63
2017-09-27T16:09:13.318Z,100392.67
2017-09-27T16:11:39.511Z,100390.41
2017-09-27T16:14:05.751Z,100399.50
2017-09-27T16:16:31.977Z,100399.53
2017-09-27T16:18:58.200Z,100398.56
2017-09-27T16:21:24.466Z,100400.28
2017-09-27T16:23:50.688Z,100403.28
2017-09-27T16:26:16.908Z,100401.92
2017-09-27T16:28:43.147Z,100399.20
2017-09-27T16:31:09.340Z,100400.52
2017-09-27T16:33:35.583Z,100408.50
2017-09-27T16:36:01.826Z,100402.27
2017-09-27T16:38:28.031Z,100408.53
2017-09-27T16:40:54.274Z,100403.99
2017-09-27T16:43:20.501Z,100396.97
2017-09-27T16:45:46.730Z,100410.07
2017-09-27T16:48:12.948Z,100413.98
2017-09-27T16:50:39.189Z,100414.30
2017-09-27T16:53:05.405Z,100419.15
2017-09-27T16:55:31.648Z,100411.60
2017-09-27T16:57:57.880Z,100422.67
2017-09-27T17:00:24.103Z,100411.14
2017-09-27T17:02:50.342Z,100419.09
2017-09-27T17:05:16.538Z,100420.34
2017-09-27T17:07:42.783Z,100420.77
2017-09-27T17:10:09.013Z,100419.98
2017-09-27T17:12:35.251Z,100419.86
2017-09-27T17:15:01.493Z,100432.95
2017-09-27T17:17:27.705Z,100435.41
2017-09-27T17:19:53.939Z,100433.21
2017-09-27T17:22:20.194Z,100438.21
2017-09-27T17:24:46.386Z,100441.78
2017-09-27T17:27:12.627Z,100443.19
2017-09-27T17:29:38.876Z,100442.75
2017-09-27T17:32:05.100Z,100441.56
2017-09-27T17:34:31.321Z,100440.57
2017-09-27T17:36:57.540Z,100438.89
2017-09-27T17:39:23.789Z,100444.53
2017-09-27T17:41:50.012Z,100442.34
2017-09-27T17:44:16.252Z,100446.72
2017-09-27T17:46:42.469Z,100452.44
2017-09-27T17:49:08.699Z,100454.24
2017-09-27T17:51:34.931Z,100456.55
2017-09-27T17:54:01.178Z,100459.57
2017-09-27T17:56:27.432Z,100455.28
2017-09-27T17:58:53.602Z,100456.51
2017-09-27T18:01:19.855Z,100458.44
2017-09-27T18:03:46.086Z,100463.27
2017-09-27T18:06:12.315Z,100461.48
2017-09-27T18:08:38.545Z,100467.54
2017-09-27T18:11:04.808Z,100476.48
2017-09-27T18:13:31.103Z,100475.82
2017-09-27T18:15:57.373Z,100475.95
2017-09-27T18:18:23.581Z,100480.26
2017-09-27T18:20:49.807Z,100480.80
2017-09-27T18:23:16.029Z,100484.39
2017-09-27T18:25:42.324Z,100486.08
2017-09-27T18:28:08.582Z,100478.67
2017-09-27T18:30:34.806Z,100491.55
2017-09-27T18:33:01.078Z,100489.22
2017-09-27T18:35:27.267Z,100492.11
2017-09-27T18:37:53.564Z,100489.59
2017-09-27T18:40:19.836Z,100486.58
2017-09-27T18:42:46.101Z,100488.22
2017-09-27T18:45:12.309Z,100497.41
2017-09-27T18:47:38.535Z,100486.98
2017-09-27T18:50:04.745Z,100497.00
2017-09-27T18:52:31.024Z,100485.83
2017-09-27T18:54:57.234Z,100484.17
2017-09-27T18:57:23.432Z,100488.22
2017-09-27T18:59:49.695Z,100487.53
2017-09-27T19:02:15.891Z,100486.77
2017-09-27T19:04:42.143Z,100485.09
2017-09-27T19:07:08.370Z,100479.23
2017-09-27T19:09:34.599Z,100479.33
2017-09-27T19:12:00.817Z,100478.88
2017-09-27T19:14:27.064Z,100481.88
2017-09-27T19:16:53.297Z,100482.86
2017-09-27T19:19:19.505Z,100477.93
2017-09-27T19:21:45.744Z,100478.84
2017-09-27T19:24:11.973Z,100472.52
2017-09-27T19:26:38.191Z,100477.59
2017-09-27T19:29:04.431Z,100472.39
2017-09-27T19:31:30.657Z,100472.95
2017-09-27T19:33:56.882Z,100468.25
2017-09-27T19:36:23.120Z,100467.92
2017-09-27T19:38:49.346Z,100470.41
2017-09-27T19:41:15.581Z,100462.94
2017-09-27T19:43:41.809Z,100470.00
2017-09-27T19:46:08.057Z,100467.01
2017-09-27T19:48:34.261Z,100472.31
2017-09-27T19:51:00.511Z,100475.64
2017-09-27T19:53:26.727Z,100477.19
2017-09-27T19:55:52.952Z,100482.64
2017-09-27T19:58:19.190Z,100484.56
2017-09-27T20:00:45.416Z,100486.16
2017-09-27T20:03:11.649Z,100477.30
2017-09-27T20:05:37.887Z,100483.05
2017-09-27T20:08:04.099Z,100485.90
2017-09-27T20:10:30.331Z,100484.95
2017-09-27T20:12:56.584Z,100480.41
2017-09-27T20:15:22.814Z,100481.11
2017-09-27T20:17:49.034Z,100481.99
2017-09-27T20:20:15.244Z,100487.03
2017-09-27T20:22:41.489Z,100478.00
2017-09-27T20:25:07.703Z,100472.54
2017-09-27T20:27:33.955Z,100479.78
2017-09-27T20:30:00.162Z,100477.50
2017-09-27T20:32:26.571Z,100477.04
2017-09-27T20:34:52.865Z,100481.92
2017-09-27T20:37:19.191Z,100481.11
2017-09-27T20:39:45.407Z,100481.54
2017-09-27T20:42:11.754Z,100478.03
2017-09-27T20:44:37.917Z,100481.19
2017-09-27T20:47:04.235Z,100476.38
2017-09-27T20:49:30.426Z,100486.28
2017-09-27T20:51:56.663Z,100490.27
2017-09-27T20:54:22.876Z,100488.06
2017-09-27T20:56:49.116Z,100487.63
2017-09-27T20:59:15.350Z,100483.00
2017-09-27T21:01:41.603Z,100485.79
2017-09-27T21:04:07.985Z,100479.12
2017-09-27T21:06:34.244Z,100475.66
2017-09-27T21:09:00.471Z,100479.53
2017-09-27T21:11:26.637Z,100478.30
2017-09-27T21:13:52.813Z,100477.13
2017-09-27T21:16:19.051Z,100477.84
2017-09-27T21:18:45.263Z,100475.02
2017-09-27T21:21:11.513Z,100477.02
2017-09-27T21:23:37.738Z,100476.47
2017-09-27T21:26:03.958Z,100473.02
2017-09-27T21:28:30.213Z,100474.34
2017-09-27T21:30:56.409Z,100474.55
2017-09-27T21:33:22.592Z,100481.11
2017-09-27T21:35:48.777Z,100477.28
2017-09-27T21:38:14.991Z,100472.62
2017-09-27T21:40:41.264Z,100478.71
2017-09-27T21:43:07.472Z,100473.98
2017-09-27T21:45:33.646Z,100477.92
2017-09-27T21:47:59.955Z,100479.91
2017-09-27T21:50:26.152Z,100478.23
2017-09-27T21:52:52.388Z,100487.25
2017-09-27T21:55:18.628Z,100475.51
2017-09-27T21:57:44.841Z,100477.52
2017-09-27T22:00:11.080Z,100473.63
2017-09-27T22:02:37.299Z,100474.19
2017-09-27T22:05:03.528Z,100474.37
2017-09-27T22:07:29.771Z,100474.15
2017-09-27T22:09:56.025Z,100479.38
2017-09-27T22:12:22.222Z,100474.50
2017-09-27T22:14:48.456Z,100474.27
2017-09-27T22:17:14.693Z,100476.46
2017-09-27T22:19:40.911Z,100477.14
2017-09-27T22:22:07.132Z,100476.91
2017-09-27T22:24:33.368Z,100477.37
2017-09-27T22:26:59.594Z,100481.13
2017-09-27T22:29:25.818Z,100474.95
2017-09-27T22:31:52.053Z,100480.37
2017-09-27T22:34:18.291Z,100482.00
2017-09-27T22:36:44.528Z,100481.41
2017-09-27T22:39:10.750Z,100480.86
2017-09-27T22:41:36.976Z,100474.50
2017-09-27T22:44:03.205Z,100476.84
2017-09-27T22:46:29.444Z,100480.87
2017-09-27T22:48:55.617Z,100478.47
2017-09-27T22:51:21.800Z,100478.23
2017-09-27T22:53:48.028Z,100481.26
2017-09-27T22:56:14.268Z,100481.89
2017-09-27T22:58:40.498Z,100479.53
2017-09-27T23:01:06.670Z,100480.70
2017-09-27T23:03:32.946Z,100478.44
2017-09-27T23:05:59.178Z,100475.49
2017-09-27T23:08:25.408Z,100473.92
2017-09-27T23:10:51.644Z,100478.34
2017-09-27T23:13:17.859Z,100482.88
2017-09-27T23:15:44.100Z,100479.91
2017-09-27T23:18:10.334Z,100481.33
2017-09-27T23:20:36.563Z,100488.53
2017-09-27T23:23:02.789Z,100486.11
2017-09-27T23:25:29.010Z,100488.25
2017-09-27T23:27:55.237Z,100485.69
2017-09-27T23:30:21.481Z,100481.19
2017-09-27T23:32:47.695Z,100480.20
2017-09-27T23:35:13.932Z,100483.71
2017-09-27T23:37:40.180Z,100476.63
2017-09-27T23:40:06.391Z,100478.23
2017-09-27T23:42:32.623Z,100478.47
2017-09-27T23:44:58.856Z,100481.37
2017-09-27T23:47:25.075Z,100478.73
2017-09-27T23:49:51.291Z,100474.60
2017-09-27T23:52:17.537Z,100482.83
2017-09-27T23:54:43.758Z,100480.72
2017-09-27T23:57:10.000Z,100480.63
2017-09-27T23:59:36.207Z,100475.88
